sensor_id;sensor_type;location;lat;lon;timestamp;P1;durP1;ratioP1;P2;durP2;ratioP2
58017;SDS011;43810;50.860;19.226;2023-05-10T00:01:27;5.60;;;4.13;;
58017;SDS011;43810;50.860;19.226;2023-05-10T00:03:52;7.05;;;4.35;;
58017;SDS011;43810;50.860;19.226;2023-05-10T00:06:18;7.65;;;4.30;;
58017;SDS011;43810;50.860;19.226;2023-05-10T00:08:44;13.85;;;4.93;;
58017;SDS011;43810;50.860;19.226;2023-05-10T00:11:11;8.25;;;4.43;;
58017;SDS011;43810;50.860;19.226;2023-05-10T00:13:36;7.90;;;5.22;;
58017;SDS011;43810;50.860;19.226;2023-05-10T00:16:02;8.32;;;4.50;;
58017;SDS011;43810;50.860;19.226;2023-05-10T00:18:28;5.90;;;4.18;;
58017;SDS011;43810;50.860;19.226;2023-05-10T00:20:54;8.00;;;4.63;;
58017;SDS011;43810;50.860;19.226;2023-05-10T00:23:20;9.38;;;4.78;;
58017;SDS011;43810;50.860;19.226;2023-05-10T00:25:46;7.93;;;4.40;;
58017;SDS011;43810;50.860;19.226;2023-05-10T00:28:11;7.65;;;4.53;;
58017;SDS011;43810;50.860;19.226;2023-05-10T00:30:37;8.13;;;4.68;;
58017;SDS011;43810;50.860;19.226;2023-05-10T00:33:03;8.30;;;4.55;;
58017;SDS011;43810;50.860;19.226;2023-05-10T00:35:29;7.70;;;5.07;;
58017;SDS011;43810;50.860;19.226;2023-05-10T00:37:55;9.35;;;4.78;;
58017;SDS011;43810;50.860;19.226;2023-05-10T00:40:20;7.57;;;4.63;;
58017;SDS011;43810;50.860;19.226;2023-05-10T00:42:46;6.82;;;4.65;;
58017;SDS011;43810;50.860;19.226;2023-05-10T00:45:12;10.68;;;4.63;;
58017;SDS011;43810;50.860;19.226;2023-05-10T00:47:38;9.07;;;4.63;;
58017;SDS011;43810;50.860;19.226;2023-05-10T00:50:05;10.80;;;4.07;;
58017;SDS011;43810;50.860;19.226;2023-05-10T00:52:31;7.50;;;4.25;;
58017;SDS011;43810;50.860;19.226;2023-05-10T00:54:57;8.13;;;4.80;;
58017;SDS011;43810;50.860;19.226;2023-05-10T00:57:23;7.18;;;4.82;;
58017;SDS011;43810;50.860;19.226;2023-05-10T00:59:50;8.95;;;5.13;;
58017;SDS011;43810;50.860;19.226;2023-05-10T01:02:15;8.38;;;4.93;;
58017;SDS011;43810;50.860;19.226;2023-05-10T01:04:42;10.95;;;4.75;;
58017;SDS011;43810;50.860;19.226;2023-05-10T01:07:08;8.80;;;5.30;;
58017;SDS011;43810;50.860;19.226;2023-05-10T01:09:34;7.53;;;4.72;;
58017;SDS011;43810;50.860;19.226;2023-05-10T01:12:00;7.72;;;4.57;;
58017;SDS011;43810;50.860;19.226;2023-05-10T01:14:27;9.27;;;4.65;;
58017;SDS011;43810;50.860;19.226;2023-05-10T01:16:53;9.00;;;4.93;;
58017;SDS011;43810;50.860;19.226;2023-05-10T01:19:25;8.45;;;4.10;;
58017;SDS011;43810;50.860;19.226;2023-05-10T01:32:31;10.13;;;5.65;;
58017;SDS011;43810;50.860;19.226;2023-05-10T01:35:00;7.75;;;5.10;;
58017;SDS011;43810;50.860;19.226;2023-05-10T01:37:42;9.35;;;5.30;;
58017;SDS011;43810;50.860;19.226;2023-05-10T01:40:19;8.93;;;4.55;;
58017;SDS011;43810;50.860;19.226;2023-05-10T01:42:54;9.70;;;4.55;;
58017;SDS011;43810;50.860;19.226;2023-05-10T01:48:44;7.15;;;5.00;;
58017;SDS011;43810;50.860;19.226;2023-05-10T01:51:23;7.95;;;4.80;;
58017;SDS011;43810;50.860;19.226;2023-05-10T01:53:51;10.60;;;4.88;;
58017;SDS011;43810;50.860;19.226;2023-05-10T01:56:25;7.97;;;4.78;;
58017;SDS011;43810;50.860;19.226;2023-05-10T01:58:53;8.80;;;5.07;;
58017;SDS011;43810;50.860;19.226;2023-05-10T02:01:21;7.60;;;5.00;;
58017;SDS011;43810;50.860;19.226;2023-05-10T02:03:47;8.05;;;5.47;;
58017;SDS011;43810;50.860;19.226;2023-05-10T02:06:16;8.90;;;5.22;;
58017;SDS011;43810;50.860;19.226;2023-05-10T02:08:45;10.48;;;5.30;;
58017;SDS011;43810;50.860;19.226;2023-05-10T02:11:13;9.27;;;5.18;;
58017;SDS011;43810;50.860;19.226;2023-05-10T02:13:39;11.02;;;5.93;;
58017;SDS011;43810;50.860;19.226;2023-05-10T02:16:08;9.05;;;5.25;;
58017;SDS011;43810;50.860;19.226;2023-05-10T02:18:35;12.73;;;5.80;;
58017;SDS011;43810;50.860;19.226;2023-05-10T02:21:02;10.82;;;5.80;;
58017;SDS011;43810;50.860;19.226;2023-05-10T02:23:28;9.00;;;5.30;;
58017;SDS011;43810;50.860;19.226;2023-05-10T02:25:56;10.07;;;5.38;;
58017;SDS011;43810;50.860;19.226;2023-05-10T02:28:23;9.18;;;5.28;;
58017;SDS011;43810;50.860;19.226;2023-05-10T02:30:51;14.07;;;5.40;;
58017;SDS011;43810;50.860;19.226;2023-05-10T02:33:18;8.50;;;4.88;;
58017;SDS011;43810;50.860;19.226;2023-05-10T02:35:46;10.63;;;5.30;;
58017;SDS011;43810;50.860;19.226;2023-05-10T02:38:13;8.98;;;5.20;;
58017;SDS011;43810;50.860;19.226;2023-05-10T02:40:41;7.60;;;5.35;;
58017;SDS011;43810;50.860;19.226;2023-05-10T02:43:09;8.82;;;5.20;;
58017;SDS011;43810;50.860;19.226;2023-05-10T02:45:39;9.23;;;5.25;;
58017;SDS011;43810;50.860;19.226;2023-05-10T02:48:06;8.15;;;5.72;;
58017;SDS011;43810;50.860;19.226;2023-05-10T02:50:33;10.93;;;5.60;;
58017;SDS011;43810;50.860;19.226;2023-05-10T02:53:01;8.70;;;5.47;;
58017;SDS011;43810;50.860;19.226;2023-05-10T02:55:33;11.70;;;5.25;;
58017;SDS011;43810;50.860;19.226;2023-05-10T02:58:02;12.32;;;6.18;;
58017;SDS011;43810;50.860;19.226;2023-05-10T03:00:28;7.47;;;4.80;;
58017;SDS011;43810;50.860;19.226;2023-05-10T03:02:54;10.57;;;5.20;;
58017;SDS011;43810;50.860;19.226;2023-05-10T03:05:21;8.60;;;5.00;;
58017;SDS011;43810;50.860;19.226;2023-05-10T03:07:46;15.30;;;6.25;;
58017;SDS011;43810;50.860;19.226;2023-05-10T03:10:13;10.73;;;5.80;;
58017;SDS011;43810;50.860;19.226;2023-05-10T03:15:33;9.13;;;6.20;;
58017;SDS011;43810;50.860;19.226;2023-05-10T03:18:19;15.85;;;6.45;;
58017;SDS011;43810;50.860;19.226;2023-05-10T03:21:07;9.88;;;5.63;;
58017;SDS011;43810;50.860;19.226;2023-05-10T03:23:48;9.82;;;6.18;;
58017;SDS011;43810;50.860;19.226;2023-05-10T03:26:22;11.60;;;5.80;;
58017;SDS011;43810;50.860;19.226;2023-05-10T03:28:50;11.05;;;6.10;;
58017;SDS011;43810;50.860;19.226;2023-05-10T03:31:18;12.27;;;5.55;;
58017;SDS011;43810;50.860;19.226;2023-05-10T03:33:47;10.93;;;6.22;;
58017;SDS011;43810;50.860;19.226;2023-05-10T03:36:14;8.38;;;4.97;;
58017;SDS011;43810;50.860;19.226;2023-05-10T03:38:40;12.95;;;6.25;;
58017;SDS011;43810;50.860;19.226;2023-05-10T03:41:06;11.38;;;6.25;;
58017;SDS011;43810;50.860;19.226;2023-05-10T03:43:32;9.18;;;5.30;;
58017;SDS011;43810;50.860;19.226;2023-05-10T03:45:58;9.18;;;5.88;;
58017;SDS011;43810;50.860;19.226;2023-05-10T03:48:23;12.10;;;5.82;;
58017;SDS011;43810;50.860;19.226;2023-05-10T03:50:49;11.40;;;5.93;;
58017;SDS011;43810;50.860;19.226;2023-05-10T03:53:15;9.98;;;6.60;;
58017;SDS011;43810;50.860;19.226;2023-05-10T03:55:41;12.88;;;5.55;;
58017;SDS011;43810;50.860;19.226;2023-05-10T03:58:07;9.88;;;5.13;;
58017;SDS011;43810;50.860;19.226;2023-05-10T04:00:36;11.38;;;5.78;;
58017;SDS011;43810;50.860;19.226;2023-05-10T04:03:02;9.65;;;5.97;;
58017;SDS011;43810;50.860;19.226;2023-05-10T04:05:28;8.52;;;5.97;;
58017;SDS011;43810;50.860;19.226;2023-05-10T04:07:54;10.35;;;5.13;;
58017;SDS011;43810;50.860;19.226;2023-05-10T04:10:20;9.77;;;5.65;;
58017;SDS011;43810;50.860;19.226;2023-05-10T04:12:46;9.45;;;5.00;;
58017;SDS011;43810;50.860;19.226;2023-05-10T04:15:15;8.50;;;4.47;;
58017;SDS011;43810;50.860;19.226;2023-05-10T04:17:41;8.70;;;3.97;;
58017;SDS011;43810;50.860;19.226;2023-05-10T04:20:08;12.27;;;4.93;;
58017;SDS011;43810;50.860;19.226;2023-05-10T04:22:34;10.77;;;5.18;;
58017;SDS011;43810;50.860;19.226;2023-05-10T04:25:00;6.03;;;4.40;;
58017;SDS011;43810;50.860;19.226;2023-05-10T04:27:25;9.10;;;4.78;;
58017;SDS011;43810;50.860;19.226;2023-05-10T04:29:51;10.07;;;4.43;;
58017;SDS011;43810;50.860;19.226;2023-05-10T04:32:17;10.40;;;4.70;;
58017;SDS011;43810;50.860;19.226;2023-05-10T04:34:44;7.60;;;4.53;;
58017;SDS011;43810;50.860;19.226;2023-05-10T04:37:10;7.47;;;4.18;;
58017;SDS011;43810;50.860;19.226;2023-05-10T04:39:35;10.38;;;4.20;;
58017;SDS011;43810;50.860;19.226;2023-05-10T04:42:02;7.70;;;4.20;;
58017;SDS011;43810;50.860;19.226;2023-05-10T04:44:28;8.07;;;5.00;;
58017;SDS011;43810;50.860;19.226;2023-05-10T04:46:54;9.13;;;4.72;;
58017;SDS011;43810;50.860;19.226;2023-05-10T04:49:20;8.45;;;4.75;;
58017;SDS011;43810;50.860;19.226;2023-05-10T04:51:46;8.27;;;4.47;;
58017;SDS011;43810;50.860;19.226;2023-05-10T04:54:12;12.43;;;4.40;;
58017;SDS011;43810;50.860;19.226;2023-05-10T04:56:38;8.38;;;4.13;;
58017;SDS011;43810;50.860;19.226;2023-05-10T04:59:04;9.80;;;4.47;;
58017;SDS011;43810;50.860;19.226;2023-05-10T05:01:30;8.13;;;4.60;;
58017;SDS011;43810;50.860;19.226;2023-05-10T05:03:56;7.97;;;4.57;;
58017;SDS011;43810;50.860;19.226;2023-05-10T05:06:22;8.20;;;4.45;;
58017;SDS011;43810;50.860;19.226;2023-05-10T05:08:47;8.07;;;4.43;;
58017;SDS011;43810;50.860;19.226;2023-05-10T05:11:14;10.23;;;4.68;;
58017;SDS011;43810;50.860;19.226;2023-05-10T05:13:40;12.82;;;4.80;;
58017;SDS011;43810;50.860;19.226;2023-05-10T05:16:06;9.32;;;4.68;;
58017;SDS011;43810;50.860;19.226;2023-05-10T05:18:32;9.35;;;4.57;;
58017;SDS011;43810;50.860;19.226;2023-05-10T05:20:58;7.60;;;4.15;;
58017;SDS011;43810;50.860;19.226;2023-05-10T05:23:24;8.95;;;4.18;;
58017;SDS011;43810;50.860;19.226;2023-05-10T05:25:53;6.60;;;3.85;;
58017;SDS011;43810;50.860;19.226;2023-05-10T05:28:19;7.47;;;4.20;;
58017;SDS011;43810;50.860;19.226;2023-05-10T05:30:45;9.35;;;4.07;;
58017;SDS011;43810;50.860;19.226;2023-05-10T05:33:15;8.45;;;4.40;;
58017;SDS011;43810;50.860;19.226;2023-05-10T05:35:41;9.85;;;4.80;;
58017;SDS011;43810;50.860;19.226;2023-05-10T05:38:13;5.93;;;4.35;;
58017;SDS011;43810;50.860;19.226;2023-05-10T05:40:38;8.65;;;4.13;;
58017;SDS011;43810;50.860;19.226;2023-05-10T05:43:04;8.27;;;4.07;;
58017;SDS011;43810;50.860;19.226;2023-05-10T05:45:30;5.55;;;3.60;;
58017;SDS011;43810;50.860;19.226;2023-05-10T05:47:56;7.70;;;4.13;;
58017;SDS011;43810;50.860;19.226;2023-05-10T05:50:21;8.57;;;4.45;;
58017;SDS011;43810;50.860;19.226;2023-05-10T05:52:47;10.70;;;4.07;;
58017;SDS011;43810;50.860;19.226;2023-05-10T05:55:13;5.65;;;4.15;;
58017;SDS011;43810;50.860;19.226;2023-05-10T05:57:39;6.63;;;4.28;;
58017;SDS011;43810;50.860;19.226;2023-05-10T06:00:05;5.75;;;3.97;;
58017;SDS011;43810;50.860;19.226;2023-05-10T06:02:31;5.50;;;3.45;;
58017;SDS011;43810;50.860;19.226;2023-05-10T06:04:57;8.18;;;4.20;;
58017;SDS011;43810;50.860;19.226;2023-05-10T06:07:23;9.38;;;4.78;;
58017;SDS011;43810;50.860;19.226;2023-05-10T06:09:49;9.70;;;4.50;;
58017;SDS011;43810;50.860;19.226;2023-05-10T06:12:15;9.40;;;4.55;;
58017;SDS011;43810;50.860;19.226;2023-05-10T06:14:41;7.60;;;4.45;;
58017;SDS011;43810;50.860;19.226;2023-05-10T06:17:07;7.93;;;4.32;;
58017;SDS011;43810;50.860;19.226;2023-05-10T06:19:32;8.82;;;4.25;;
58017;SDS011;43810;50.860;19.226;2023-05-10T06:21:58;7.38;;;3.42;;
58017;SDS011;43810;50.860;19.226;2023-05-10T06:24:24;11.55;;;4.25;;
58017;SDS011;43810;50.860;19.226;2023-05-10T06:26:50;7.88;;;4.13;;
58017;SDS011;43810;50.860;19.226;2023-05-10T06:29:15;6.80;;;3.40;;
58017;SDS011;43810;50.860;19.226;2023-05-10T06:31:41;9.02;;;4.35;;
58017;SDS011;43810;50.860;19.226;2023-05-10T06:34:07;9.73;;;3.97;;
58017;SDS011;43810;50.860;19.226;2023-05-10T06:36:33;6.72;;;3.55;;
58017;SDS011;43810;50.860;19.226;2023-05-10T06:38:59;6.22;;;3.78;;
58017;SDS011;43810;50.860;19.226;2023-05-10T06:41:25;8.18;;;4.55;;
58017;SDS011;43810;50.860;19.226;2023-05-10T06:43:50;7.43;;;3.90;;
58017;SDS011;43810;50.860;19.226;2023-05-10T06:46:16;6.85;;;4.20;;
58017;SDS011;43810;50.860;19.226;2023-05-10T06:48:42;7.38;;;4.28;;
58017;SDS011;43810;50.860;19.226;2023-05-10T06:51:08;9.30;;;4.07;;
58017;SDS011;43810;50.860;19.226;2023-05-10T06:53:34;11.10;;;3.78;;
58017;SDS011;43810;50.860;19.226;2023-05-10T06:56:00;8.02;;;3.97;;
58017;SDS011;43810;50.860;19.226;2023-05-10T06:58:25;6.43;;;4.03;;
58017;SDS011;43810;50.860;19.226;2023-05-10T07:00:51;9.35;;;4.38;;
58017;SDS011;43810;50.860;19.226;2023-05-10T07:03:17;5.05;;;3.88;;
58017;SDS011;43810;50.860;19.226;2023-05-10T07:05:43;8.25;;;4.28;;
58017;SDS011;43810;50.860;19.226;2023-05-10T07:08:09;7.30;;;4.13;;
58017;SDS011;43810;50.860;19.226;2023-05-10T07:10:35;5.93;;;3.92;;
58017;SDS011;43810;50.860;19.226;2023-05-10T07:13:00;5.50;;;3.42;;
58017;SDS011;43810;50.860;19.226;2023-05-10T07:15:26;10.82;;;3.90;;
58017;SDS011;43810;50.860;19.226;2023-05-10T07:17:53;6.18;;;4.03;;
58017;SDS011;43810;50.860;19.226;2023-05-10T07:20:19;5.40;;;3.58;;
58017;SDS011;43810;50.860;19.226;2023-05-10T07:22:44;7.05;;;3.78;;
58017;SDS011;43810;50.860;19.226;2023-05-10T07:25:10;7.20;;;3.60;;
58017;SDS011;43810;50.860;19.226;2023-05-10T07:27:36;6.05;;;3.50;;
58017;SDS011;43810;50.860;19.226;2023-05-10T07:30:02;7.22;;;3.92;;
58017;SDS011;43810;50.860;19.226;2023-05-10T07:32:28;9.23;;;4.10;;
58017;SDS011;43810;50.860;19.226;2023-05-10T07:34:54;8.55;;;3.50;;
58017;SDS011;43810;50.860;19.226;2023-05-10T07:37:19;7.30;;;4.13;;
58017;SDS011;43810;50.860;19.226;2023-05-10T07:39:46;9.70;;;4.43;;
58017;SDS011;43810;50.860;19.226;2023-05-10T07:42:11;7.60;;;4.50;;
58017;SDS011;43810;50.860;19.226;2023-05-10T07:44:37;8.45;;;3.85;;
58017;SDS011;43810;50.860;19.226;2023-05-10T07:47:03;6.20;;;3.70;;
58017;SDS011;43810;50.860;19.226;2023-05-10T07:49:29;10.15;;;4.88;;
58017;SDS011;43810;50.860;19.226;2023-05-10T07:51:54;5.93;;;3.58;;
58017;SDS011;43810;50.860;19.226;2023-05-10T07:54:20;5.85;;;3.60;;
58017;SDS011;43810;50.860;19.226;2023-05-10T07:56:46;13.60;;;5.55;;
58017;SDS011;43810;50.860;19.226;2023-05-10T07:59:16;11.38;;;5.53;;
58017;SDS011;43810;50.860;19.226;2023-05-10T08:01:42;6.40;;;3.85;;
58017;SDS011;43810;50.860;19.226;2023-05-10T08:04:08;7.00;;;4.82;;
58017;SDS011;43810;50.860;19.226;2023-05-10T08:06:34;5.00;;;3.55;;
58017;SDS011;43810;50.860;19.226;2023-05-10T08:09:00;5.32;;;3.20;;
58017;SDS011;43810;50.860;19.226;2023-05-10T08:11:26;5.85;;;3.13;;
58017;SDS011;43810;50.860;19.226;2023-05-10T08:13:53;4.75;;;3.60;;
58017;SDS011;43810;50.860;19.226;2023-05-10T08:16:19;6.13;;;3.47;;
58017;SDS011;43810;50.860;19.226;2023-05-10T08:18:46;5.90;;;3.90;;
58017;SDS011;43810;50.860;19.226;2023-05-10T08:21:12;7.45;;;3.55;;
58017;SDS011;43810;50.860;19.226;2023-05-10T08:23:39;4.25;;;3.05;;
58017;SDS011;43810;50.860;19.226;2023-05-10T08:26:05;7.75;;;4.03;;
58017;SDS011;43810;50.860;19.226;2023-05-10T08:28:31;7.25;;;3.30;;
58017;SDS011;43810;50.860;19.226;2023-05-10T08:30:57;7.90;;;2.88;;
58017;SDS011;43810;50.860;19.226;2023-05-10T08:33:23;3.65;;;2.55;;
58017;SDS011;43810;50.860;19.226;2023-05-10T08:35:48;7.45;;;2.90;;
58017;SDS011;43810;50.860;19.226;2023-05-10T08:38:15;7.13;;;2.97;;
58017;SDS011;43810;50.860;19.226;2023-05-10T08:40:41;6.82;;;3.42;;
58017;SDS011;43810;50.860;19.226;2023-05-10T08:43:11;10.73;;;3.25;;
58017;SDS011;43810;50.860;19.226;2023-05-10T08:45:41;4.00;;;2.30;;
58017;SDS011;43810;50.860;19.226;2023-05-10T08:48:09;4.68;;;2.45;;
58017;SDS011;43810;50.860;19.226;2023-05-10T08:50:36;2.78;;;2.35;;
58017;SDS011;43810;50.860;19.226;2023-05-10T08:53:06;7.13;;;2.53;;
58017;SDS011;43810;50.860;19.226;2023-05-10T08:55:35;7.50;;;3.25;;
58017;SDS011;43810;50.860;19.226;2023-05-10T08:58:04;6.53;;;2.88;;
58017;SDS011;43810;50.860;19.226;2023-05-10T09:00:31;5.85;;;2.53;;
58017;SDS011;43810;50.860;19.226;2023-05-10T09:02:57;5.28;;;3.25;;
58017;SDS011;43810;50.860;19.226;2023-05-10T09:05:24;5.22;;;2.58;;
58017;SDS011;43810;50.860;19.226;2023-05-10T09:07:50;3.72;;;2.58;;
58017;SDS011;43810;50.860;19.226;2023-05-10T09:10:16;4.15;;;2.10;;
58017;SDS011;43810;50.860;19.226;2023-05-10T09:12:43;5.82;;;2.60;;
58017;SDS011;43810;50.860;19.226;2023-05-10T09:15:11;5.45;;;2.38;;
58017;SDS011;43810;50.860;19.226;2023-05-10T09:17:41;2.58;;;2.20;;
58017;SDS011;43810;50.860;19.226;2023-05-10T09:20:08;4.30;;;2.13;;
58017;SDS011;43810;50.860;19.226;2023-05-10T09:22:35;5.32;;;2.17;;
58017;SDS011;43810;50.860;19.226;2023-05-10T09:27:34;10.50;;;2.35;;
58017;SDS011;43810;50.860;19.226;2023-05-10T09:30:04;4.47;;;3.22;;
58017;SDS011;43810;50.860;19.226;2023-05-10T09:32:40;4.05;;;2.22;;
58017;SDS011;43810;50.860;19.226;2023-05-10T09:35:10;5.10;;;2.30;;
58017;SDS011;43810;50.860;19.226;2023-05-10T09:37:38;9.98;;;2.42;;
58017;SDS011;43810;50.860;19.226;2023-05-10T09:40:07;6.22;;;2.33;;
58017;SDS011;43810;50.860;19.226;2023-05-10T09:42:36;6.35;;;2.15;;
58017;SDS011;43810;50.860;19.226;2023-05-10T09:45:05;7.07;;;2.75;;
58017;SDS011;43810;50.860;19.226;2023-05-10T09:47:33;4.55;;;2.50;;
58017;SDS011;43810;50.860;19.226;2023-05-10T09:50:00;4.72;;;2.30;;
58017;SDS011;43810;50.860;19.226;2023-05-10T09:52:30;3.15;;;2.08;;
58017;SDS011;43810;50.860;19.226;2023-05-10T09:55:10;5.68;;;2.00;;
58017;SDS011;43810;50.860;19.226;2023-05-10T09:57:36;8.80;;;2.63;;
58017;SDS011;43810;50.860;19.226;2023-05-10T10:00:02;2.47;;;1.80;;
58017;SDS011;43810;50.860;19.226;2023-05-10T10:02:30;5.57;;;2.45;;
58017;SDS011;43810;50.860;19.226;2023-05-10T10:04:56;2.78;;;1.95;;
58017;SDS011;43810;50.860;19.226;2023-05-10T10:07:23;3.92;;;2.08;;
58017;SDS011;43810;50.860;19.226;2023-05-10T10:09:50;7.47;;;2.25;;
58017;SDS011;43810;50.860;19.226;2023-05-10T10:12:17;2.00;;;1.77;;
58017;SDS011;43810;50.860;19.226;2023-05-10T10:14:43;3.03;;;1.73;;
58017;SDS011;43810;50.860;19.226;2023-05-10T10:17:09;5.82;;;1.70;;
58017;SDS011;43810;50.860;19.226;2023-05-10T10:19:35;9.10;;;2.22;;
58017;SDS011;43810;50.860;19.226;2023-05-10T10:22:01;5.28;;;2.00;;
58017;SDS011;43810;50.860;19.226;2023-05-10T10:24:27;3.10;;;1.83;;
58017;SDS011;43810;50.860;19.226;2023-05-10T10:26:54;2.25;;;1.80;;
58017;SDS011;43810;50.860;19.226;2023-05-10T10:29:59;3.17;;;1.77;;
58017;SDS011;43810;50.860;19.226;2023-05-10T10:35:36;3.47;;;1.92;;
58017;SDS011;43810;50.860;19.226;2023-05-10T10:38:02;3.25;;;1.90;;
58017;SDS011;43810;50.860;19.226;2023-05-10T10:40:29;4.00;;;1.80;;
58017;SDS011;43810;50.860;19.226;2023-05-10T10:42:57;2.42;;;1.90;;
58017;SDS011;43810;50.860;19.226;2023-05-10T10:45:24;4.45;;;2.00;;
58017;SDS011;43810;50.860;19.226;2023-05-10T10:50:51;2.72;;;2.03;;
58017;SDS011;43810;50.860;19.226;2023-05-10T10:53:22;2.58;;;1.90;;
58017;SDS011;43810;50.860;19.226;2023-05-10T10:55:48;2.80;;;1.70;;
58017;SDS011;43810;50.860;19.226;2023-05-10T10:58:29;4.88;;;1.88;;
58017;SDS011;43810;50.860;19.226;2023-05-10T11:01:09;6.13;;;2.40;;
58017;SDS011;43810;50.860;19.226;2023-05-10T11:03:35;3.10;;;1.90;;
58017;SDS011;43810;50.860;19.226;2023-05-10T11:06:01;3.40;;;1.90;;
58017;SDS011;43810;50.860;19.226;2023-05-10T11:08:29;3.40;;;1.48;;
58017;SDS011;43810;50.860;19.226;2023-05-10T11:15:53;4.38;;;1.80;;
58017;SDS011;43810;50.860;19.226;2023-05-10T11:18:24;3.28;;;1.95;;
58017;SDS011;43810;50.860;19.226;2023-05-10T11:23:31;2.70;;;2.00;;
58017;SDS011;43810;50.860;19.226;2023-05-10T11:26:00;6.03;;;2.53;;
58017;SDS011;43810;50.860;19.226;2023-05-10T11:28:29;4.38;;;2.30;;
58017;SDS011;43810;50.860;19.226;2023-05-10T11:30:55;3.90;;;1.90;;
58017;SDS011;43810;50.860;19.226;2023-05-10T11:33:22;4.50;;;1.80;;
58017;SDS011;43810;50.860;19.226;2023-05-10T11:35:48;5.93;;;2.00;;
58017;SDS011;43810;50.860;19.226;2023-05-10T11:38:14;4.88;;;2.10;;
58017;SDS011;43810;50.860;19.226;2023-05-10T11:40:40;3.28;;;2.00;;
58017;SDS011;43810;50.860;19.226;2023-05-10T11:43:06;5.63;;;2.33;;
58017;SDS011;43810;50.860;19.226;2023-05-10T11:45:35;3.65;;;2.10;;
58017;SDS011;43810;50.860;19.226;2023-05-10T11:48:01;3.35;;;2.17;;
58017;SDS011;43810;50.860;19.226;2023-05-10T11:50:28;4.97;;;2.40;;
58017;SDS011;43810;50.860;19.226;2023-05-10T11:52:55;9.73;;;2.17;;
58017;SDS011;43810;50.860;19.226;2023-05-10T11:55:22;2.30;;;2.10;;
58017;SDS011;43810;50.860;19.226;2023-05-10T11:57:59;3.92;;;1.88;;
58017;SDS011;43810;50.860;19.226;2023-05-10T12:00:26;3.15;;;2.08;;
58017;SDS011;43810;50.860;19.226;2023-05-10T12:02:52;3.95;;;2.10;;
58017;SDS011;43810;50.860;19.226;2023-05-10T12:05:18;2.83;;;2.03;;
58017;SDS011;43810;50.860;19.226;2023-05-10T12:07:44;3.50;;;1.98;;
58017;SDS011;43810;50.860;19.226;2023-05-10T12:10:10;4.00;;;1.83;;
58017;SDS011;43810;50.860;19.226;2023-05-10T12:12:40;2.85;;;1.77;;
58017;SDS011;43810;50.860;19.226;2023-05-10T12:15:17;16.92;;;2.45;;
58017;SDS011;43810;50.860;19.226;2023-05-10T12:17:45;3.28;;;2.28;;
58017;SDS011;43810;50.860;19.226;2023-05-10T12:20:21;3.80;;;1.60;;
58017;SDS011;43810;50.860;19.226;2023-05-10T12:22:53;3.80;;;2.38;;
58017;SDS011;43810;50.860;19.226;2023-05-10T12:25:21;2.38;;;2.00;;
58017;SDS011;43810;50.860;19.226;2023-05-10T12:27:52;6.22;;;1.90;;
58017;SDS011;43810;50.860;19.226;2023-05-10T12:32:49;3.10;;;2.15;;
58017;SDS011;43810;50.860;19.226;2023-05-10T12:35:15;2.67;;;2.13;;
58017;SDS011;43810;50.860;19.226;2023-05-10T12:37:42;2.30;;;1.80;;
58017;SDS011;43810;50.860;19.226;2023-05-10T12:40:09;4.63;;;1.83;;
58017;SDS011;43810;50.860;19.226;2023-05-10T12:42:39;4.22;;;2.10;;
58017;SDS011;43810;50.860;19.226;2023-05-10T12:45:05;5.00;;;2.20;;
58017;SDS011;43810;50.860;19.226;2023-05-10T12:47:32;2.85;;;2.00;;
58017;SDS011;43810;50.860;19.226;2023-05-10T12:49:59;4.15;;;2.15;;
58017;SDS011;43810;50.860;19.226;2023-05-10T12:52:26;3.30;;;2.13;;
58017;SDS011;43810;50.860;19.226;2023-05-10T12:54:52;2.10;;;1.70;;
58017;SDS011;43810;50.860;19.226;2023-05-10T12:57:21;1.67;;;1.58;;
58017;SDS011;43810;50.860;19.226;2023-05-10T12:59:47;4.72;;;1.83;;
58017;SDS011;43810;50.860;19.226;2023-05-10T13:02:13;3.03;;;1.85;;
58017;SDS011;43810;50.860;19.226;2023-05-10T13:04:40;2.65;;;2.00;;
58017;SDS011;43810;50.860;19.226;2023-05-10T13:07:07;2.95;;;1.80;;
58017;SDS011;43810;50.860;19.226;2023-05-10T13:09:32;7.97;;;1.77;;
58017;SDS011;43810;50.860;19.226;2023-05-10T13:11:59;3.58;;;1.88;;
58017;SDS011;43810;50.860;19.226;2023-05-10T13:14:24;8.73;;;2.20;;
58017;SDS011;43810;50.860;19.226;2023-05-10T13:16:51;2.38;;;1.40;;
58017;SDS011;43810;50.860;19.226;2023-05-10T13:19:17;2.17;;;1.58;;
58017;SDS011;43810;50.860;19.226;2023-05-10T13:21:43;2.97;;;1.73;;
58017;SDS011;43810;50.860;19.226;2023-05-10T13:24:12;3.40;;;1.42;;
58017;SDS011;43810;50.860;19.226;2023-05-10T13:26:42;8.05;;;2.00;;
58017;SDS011;43810;50.860;19.226;2023-05-10T13:29:08;5.50;;;1.90;;
58017;SDS011;43810;50.860;19.226;2023-05-10T13:31:35;4.78;;;1.77;;
58017;SDS011;43810;50.860;19.226;2023-05-10T13:34:07;15.57;;;3.38;;
58017;SDS011;43810;50.860;19.226;2023-05-10T13:36:33;7.88;;;2.20;;
58017;SDS011;43810;50.860;19.226;2023-05-10T13:38:59;3.50;;;1.88;;
58017;SDS011;43810;50.860;19.226;2023-05-10T13:41:26;4.82;;;1.67;;
58017;SDS011;43810;50.860;19.226;2023-05-10T13:43:52;3.67;;;1.70;;
58017;SDS011;43810;50.860;19.226;2023-05-10T13:46:18;1.55;;;1.38;;
58017;SDS011;43810;50.860;19.226;2023-05-10T13:48:44;2.65;;;1.73;;
58017;SDS011;43810;50.860;19.226;2023-05-10T13:51:10;3.97;;;1.88;;
58017;SDS011;43810;50.860;19.226;2023-05-10T13:53:35;4.03;;;1.63;;
58017;SDS011;43810;50.860;19.226;2023-05-10T13:56:02;2.28;;;1.77;;
58017;SDS011;43810;50.860;19.226;2023-05-10T13:58:28;3.03;;;1.85;;
58017;SDS011;43810;50.860;19.226;2023-05-10T14:00:54;2.72;;;1.45;;
58017;SDS011;43810;50.860;19.226;2023-05-10T14:03:19;2.35;;;1.63;;
58017;SDS011;43810;50.860;19.226;2023-05-10T14:05:45;2.85;;;1.63;;
58017;SDS011;43810;50.860;19.226;2023-05-10T14:08:10;3.22;;;1.75;;
58017;SDS011;43810;50.860;19.226;2023-05-10T14:10:38;1.88;;;1.48;;
58017;SDS011;43810;50.860;19.226;2023-05-10T14:13:04;5.63;;;1.67;;
58017;SDS011;43810;50.860;19.226;2023-05-10T14:15:30;2.78;;;1.35;;
58017;SDS011;43810;50.860;19.226;2023-05-10T14:17:56;5.10;;;1.67;;
58017;SDS011;43810;50.860;19.226;2023-05-10T14:20:22;4.18;;;1.60;;
58017;SDS011;43810;50.860;19.226;2023-05-10T14:22:48;5.38;;;1.63;;
58017;SDS011;43810;50.860;19.226;2023-05-10T14:25:13;2.65;;;1.50;;
58017;SDS011;43810;50.860;19.226;2023-05-10T14:27:39;1.67;;;1.58;;
58017;SDS011;43810;50.860;19.226;2023-05-10T14:30:06;2.80;;;1.52;;
58017;SDS011;43810;50.860;19.226;2023-05-10T14:32:32;5.13;;;1.63;;
58017;SDS011;43810;50.860;19.226;2023-05-10T14:34:58;4.63;;;1.85;;
58017;SDS011;43810;50.860;19.226;2023-05-10T14:37:23;2.33;;;1.70;;
58017;SDS011;43810;50.860;19.226;2023-05-10T14:39:49;6.05;;;1.95;;
58017;SDS011;43810;50.860;19.226;2023-05-10T14:42:15;2.60;;;1.67;;
58017;SDS011;43810;50.860;19.226;2023-05-10T14:44:41;4.03;;;1.63;;
58017;SDS011;43810;50.860;19.226;2023-05-10T14:47:06;5.30;;;1.70;;
58017;SDS011;43810;50.860;19.226;2023-05-10T14:49:32;3.00;;;1.80;;
58017;SDS011;43810;50.860;19.226;2023-05-10T14:51:58;6.50;;;1.98;;
58017;SDS011;43810;50.860;19.226;2023-05-10T14:54:24;2.45;;;1.60;;
58017;SDS011;43810;50.860;19.226;2023-05-10T14:56:49;6.20;;;3.30;;
58017;SDS011;43810;50.860;19.226;2023-05-10T14:59:15;4.00;;;1.80;;
58017;SDS011;43810;50.860;19.226;2023-05-10T15:01:41;1.90;;;1.67;;
58017;SDS011;43810;50.860;19.226;2023-05-10T15:04:07;2.25;;;1.70;;
58017;SDS011;43810;50.860;19.226;2023-05-10T15:06:33;2.92;;;1.50;;
58017;SDS011;43810;50.860;19.226;2023-05-10T15:09:00;2.03;;;1.70;;